Grand Marais, Minnesota
Current Conditions -  °F | °C
As of 5:13 PM on Wednesday 22 Oct 2014 (Local Time) from KCKC Reporting Station
Clear Clear  
Wind Chill:   Ceiling: Unl
Heat Index:   Visibility: 10mi
Dew Point: -2°   Wind: 7mph
Humidity: 57%   Direction: 110°ESE
Pressure: 30.13"   Gusts: NA
Location:  47.75°N, 90.33°W
Report Text: KCKC 222213Z AUTO 11006KT 10SM CLR 06/M02 A3013 RMK AO2
Loading
Personal Weather Stations






























Interactive Weather Map
Tropical Storm Tracking
New forecast layout! Learn more

10-Day Weather Forecast

Advertisements
Track Severe Weather on mobile